Terminal Aerodrome Forecast
Issued by NWS Duluth, MN

Home | Current Version | Previous Version | Text Only | Print | Product List | Glossary On
Versions: 1 2 3 4 5 6 7 8 9 10 11 12 13 14 15 16 17 18 19 20 21 22
000
FTUS43 KDLH 231600 AAA
TAFINL
TAF AMD
KINL 231646Z 2317/2412 21003KT 2SM BR OVC003
     FM232200 27004KT 4SM -DZSN BR OVC004
     FM240100 30005KT 4SM -SN BR OVC004
     FM240900 35010G18KT 2SM -SN OVC007=

USA.gov is the U.S. government's official web portal to all federal, state and local government web resources and services.